Weather at La Jagua Airport

Public forecast

Using degrees Celsius for public forecast. Weather courtesy of forecast.io.

Closest aviation weather report (METAR) to La Jagua Airport

Report is more than 6 hours old.

Closest report is Gustavo Artunduaga Paredes Airport, 34.4 nm (63.6 km) SSE. Retrieved 2020/08/14 14:00 UTC (2 months ago):

SKFL 141400Z 00000KT 6000 VCSH BKN010 25/25 A2993

Closest aviation forecast (TAF) to La Jagua Airport

Closest forecast is Alfonso Bonilla Aragon International Airport, 93.4 nm (173.1 km) NNW. Retrieved 2020/10/21 12:48 UTC (4 minutes ago):

TAF SKCL 211030Z 2112/2212 VRB02KT 9999 SCT020 BKN100 BECMG 2119/2120 31008KT SCT020TCU TEMPO 2120/2124 6000 TSRA SCT017CB BKN080 BECMG 2201/2203 06005KT TEMPO 2203/2209 8000 DZ SCT017TCU TX32/2119Z TN19/2211Z